Time;durP1;ratioP1;P1;durP2;ratioP2;P2;SDS_P1;SDS_P2;PMS_P1;PMS_P2;Temp;Humidity;BMP_temperature;BMP_pressure;BME280_temperature;BME280_humidity;BME280_pressure;Samples;Min_cycle;Max_cycle;Signal;HPM_P1;HPM_P2
2022/11/17 00:00:19;;;;;;;10.50;5.15;;;;;;;8.84;100.00;98697.38;5018942;28;20607;-60
2022/11/17 00:02:45;;;;;;;9.95;4.80;;;;;;;8.84;100.00;98686.00;5020203;28;20067;-58
2022/11/17 00:05:11;;;;;;;9.70;5.25;;;;;;;8.85;100.00;98677.88;5017937;28;20061;-60
2022/11/17 00:07:36;;;;;;;9.77;4.88;;;;;;;8.86;100.00;98676.03;5019504;28;20461;-59
2022/11/17 00:10:02;;;;;;;9.85;5.15;;;;;;;8.83;100.00;98671.97;5040041;28;20053;-60
2022/11/17 00:15:11;;;;;;;11.23;5.30;;;;;;;8.85;100.00;98661.19;5018850;28;20039;-61
2022/11/17 00:17:36;;;;;;;13.10;5.20;;;;;;;8.88;100.00;98676.63;5009111;28;20033;-59
2022/11/17 00:22:47;;;;;;;9.55;5.05;;;;;;;8.90;100.00;98655.28;5022871;28;20428;-60
2022/11/17 00:25:12;;;;;;;10.27;4.80;;;;;;;8.90;100.00;98647.38;5014784;28;20026;-59
2022/11/17 00:27:37;;;;;;;12.45;5.22;;;;;;;8.92;100.00;98629.47;5025726;28;20030;-59
2022/11/17 00:30:04;;;;;;;11.55;5.30;;;;;;;8.91;100.00;98633.13;5026760;28;20033;-58
2022/11/17 00:35:13;;;;;;;10.70;4.70;;;;;;;8.91;100.00;98618.09;5026719;28;20450;-58
2022/11/17 00:40:22;;;;;;;9.55;4.82;;;;;;;8.91;100.00;98612.81;5021600;28;20099;-59
2022/11/17 00:42:48;;;;;;;8.43;4.55;;;;;;;8.95;100.00;98592.88;5024306;28;20055;-61
2022/11/17 00:45:13;;;;;;;11.20;4.65;;;;;;;8.92;100.00;98613.63;5019261;28;20096;-58
2022/11/17 00:47:38;;;;;;;8.20;4.43;;;;;;;8.93;100.00;98605.47;5021663;28;20037;-59
2022/11/17 00:50:04;;;;;;;8.70;4.30;;;;;;;8.96;100.00;98596.31;5019160;28;20444;-59
2022/11/17 00:52:29;;;;;;;9.57;4.10;;;;;;;8.93;100.00;98589.59;5020370;28;20037;-59
2022/11/17 00:54:55;;;;;;;8.70;4.40;;;;;;;8.95;100.00;98577.03;5015877;28;20037;-58
2022/11/17 00:57:20;;;;;;;7.63;4.05;;;;;;;8.98;100.00;98575.78;5022093;28;20521;-60
2022/11/17 00:59:45;;;;;;;7.53;4.15;;;;;;;8.98;100.00;98584.53;5023454;28;20175;-58
2022/11/17 01:02:10;;;;;;;6.35;3.90;;;;;;;9.00;100.00;98584.31;5014680;28;20044;-60
2022/11/17 01:04:36;;;;;;;8.88;4.22;;;;;;;8.99;100.00;98567.63;5020301;28;20045;-60
2022/11/17 01:07:01;;;;;;;8.93;4.10;;;;;;;8.98;100.00;98562.56;5014871;28;20962;-60
2022/11/17 01:09:26;;;;;;;7.03;4.03;;;;;;;8.97;100.00;98572.31;5022645;28;20178;-59
2022/11/17 01:11:52;;;;;;;7.30;3.85;;;;;;;8.98;100.00;98555.44;5022576;28;20604;-60
2022/11/17 01:14:20;;;;;;;7.68;4.10;;;;;;;8.99;100.00;98540.41;5017777;28;20191;-59
2022/11/17 01:16:46;;;;;;;10.65;4.43;;;;;;;8.98;100.00;98542.22;5019463;28;20044;-61
2022/11/17 01:19:13;;;;;;;8.60;3.83;;;;;;;8.97;100.00;98543.25;5024309;28;20033;-59
2022/11/17 01:21:38;;;;;;;5.53;3.38;;;;;;;9.01;100.00;98538.34;5015700;28;20584;-59
2022/11/17 01:24:04;;;;;;;6.13;3.42;;;;;;;9.06;100.00;98551.78;5010126;28;20065;-60
2022/11/17 01:26:32;;;;;;;8.43;3.28;;;;;;;9.04;100.00;98545.06;5022067;28;20575;-59
2022/11/17 01:28:59;;;;;;;5.30;2.95;;;;;;;9.12;100.00;98539.53;5020542;28;20046;-60
2022/11/17 01:31:27;;;;;;;5.25;3.08;;;;;;;9.10;100.00;98533.66;5022717;28;20039;-59
2022/11/17 01:33:53;;;;;;;7.00;3.10;;;;;;;9.13;100.00;98541.19;5023735;28;20033;-59
2022/11/17 01:36:22;;;;;;;6.13;3.03;;;;;;;9.12;100.00;98539.53;5015446;28;20042;-59
2022/11/17 01:38:49;;;;;;;5.80;3.20;;;;;;;9.13;100.00;98527.97;5017395;28;20330;-59
2022/11/17 01:41:17;;;;;;;5.82;3.00;;;;;;;9.12;100.00;98513.09;5012886;28;20044;-59
2022/11/17 01:43:52;;;;;;;6.85;3.00;;;;;;;9.13;100.00;98506.81;5017340;28;20026;-59
2022/11/17 01:46:30;;;;;;;7.47;3.13;;;;;;;9.16;100.00;98509.03;5025972;28;20033;-59
2022/11/17 01:49:09;;;;;;;7.53;3.00;;;;;;;9.19;100.00;98527.13;5024658;28;20033;-59
2022/11/17 01:51:38;;;;;;;3.97;2.80;;;;;;;9.21;100.00;98522.44;5018150;28;20546;-59
2022/11/17 01:54:05;;;;;;;4.40;2.60;;;;;;;9.22;100.00;98529.34;5020625;28;20033;-62
2022/11/17 01:56:37;;;;;;;8.93;3.10;;;;;;;9.24;100.00;98535.22;5022116;28;20029;-59
2022/11/17 01:59:34;;;;;;;5.25;3.20;;;;;;;9.28;100.00;98527.69;5029998;28;20465;-59
2022/11/17 02:02:00;;;;;;;4.88;3.20;;;;;;;9.29;100.00;98513.44;5027648;28;20370;-59
2022/11/17 02:04:25;;;;;;;7.20;3.00;;;;;;;9.27;100.00;98521.59;5018287;28;20048;-59
2022/11/17 02:06:56;;;;;;;4.60;3.15;;;;;;;9.28;100.00;98512.63;5011898;28;20497;-60
2022/11/17 02:09:22;;;;;;;5.28;3.13;;;;;;;9.30;100.00;98525.66;5015983;28;20033;-61
2022/11/17 02:11:48;;;;;;;4.95;3.00;;;;;;;9.36;100.00;98529.28;5020396;28;20038;-60
2022/11/17 02:14:13;;;;;;;5.43;3.10;;;;;;;9.35;100.00;98499.38;5020403;28;20036;-59
2022/11/17 02:16:39;;;;;;;4.35;2.90;;;;;;;9.45;100.00;98512.16;5023879;28;20437;-59
2022/11/17 02:19:04;;;;;;;5.60;2.90;;;;;;;9.38;100.00;98506.09;5016389;28;20040;-60
2022/11/17 02:22:09;;;;;;;6.20;2.90;;;;;;;9.36;100.00;98493.06;5017516;28;20029;-60
2022/11/17 02:24:46;;;;;;;5.60;3.10;;;;;;;9.35;100.00;98495.91;5019141;28;20402;-61
2022/11/17 02:27:53;;;;;;;4.80;2.60;;;;;;;9.34;100.00;98489.00;5025745;28;20060;-60
2022/11/17 02:30:21;;;;;;;4.97;2.70;;;;;;;9.32;100.00;98464.63;5017193;28;20130;-60
2022/11/17 02:33:10;;;;;;;2.58;2.15;;;;;;;9.34;100.00;98446.69;5022367;28;20052;-59
2022/11/17 02:35:44;;;;;;;3.72;2.05;;;;;;;9.35;100.00;98445.66;5014970;28;20056;-59
2022/11/17 02:38:39;;;;;;;4.05;1.85;;;;;;;9.44;100.00;98433.81;5009676;28;20081;-60
2022/11/17 02:41:16;;;;;;;4.70;1.90;;;;;;;9.41;100.00;98432.41;5029041;28;20041;-60
2022/11/17 02:44:02;;;;;;;6.13;1.90;;;;;;;9.45;100.00;98443.38;5018005;28;20033;-59
2022/11/17 02:46:50;;;;;;;4.05;1.80;;;;;;;9.46;100.00;98423.81;5023943;28;20033;-59
2022/11/17 02:49:28;;;;;;;6.13;2.00;;;;;;;9.45;100.00;98424.84;5018546;28;20049;-58
2022/11/17 02:51:56;;;;;;;4.82;1.85;;;;;;;9.45;100.00;98416.91;5015717;28;20087;-60
2022/11/17 02:54:24;;;;;;;2.22;1.80;;;;;;;9.43;100.00;98424.25;5025335;28;20039;-60
2022/11/17 02:56:49;;;;;;;4.05;1.80;;;;;;;9.42;100.00;98419.97;5022157;28;20033;-59
2022/11/17 02:59:19;;;;;;;2.60;1.75;;;;;;;9.40;100.00;98414.09;5022918;28;20484;-59
2022/11/17 03:02:26;;;;;;;1.77;1.45;;;;;;;9.42;100.00;98412.03;5011700;28;20048;-60
2022/11/17 03:05:25;;;;;;;2.60;1.60;;;;;;;9.37;100.00;98414.53;5012572;28;20052;-59
2022/11/17 03:08:19;;;;;;;2.42;1.55;;;;;;;9.36;100.00;98407.59;5010897;28;20077;-60
2022/11/17 03:10:55;;;;;;;2.40;1.60;;;;;;;9.33;100.00;98405.41;5019578;28;20813;-59
2022/11/17 03:13:38;;;;;;;2.25;1.60;;;;;;;9.29;100.00;98397.88;5016177;28;20037;-61
2022/11/17 03:16:20;;;;;;;1.60;1.50;;;;;;;9.30;100.00;98388.13;5024723;28;20445;-59
2022/11/17 03:19:10;;;;;;;1.40;1.30;;;;;;;9.27;100.00;98392.00;5016545;28;20037;-59
2022/11/17 03:22:09;;;;;;;2.55;1.50;;;;;;;9.25;100.00;98386.13;5021622;28;20088;-61
2022/11/17 03:24:46;;;;;;;2.47;1.45;;;;;;;9.19;100.00;98378.22;5020134;28;20422;-59
2022/11/17 03:27:25;;;;;;;1.40;1.30;;;;;;;9.19;100.00;98371.13;5018804;28;20030;-59
2022/11/17 03:30:00;;;;;;;2.97;1.40;;;;;;;9.15;100.00;98370.72;5019157;28;20037;-62
2022/11/17 03:32:30;;;;;;;2.28;1.17;;;;;;;9.16;100.00;98366.25;5011440;28;20481;-59
2022/11/17 03:35:00;;;;;;;2.60;1.30;;;;;;;9.11;100.00;98352.84;5018501;28;20034;-61
2022/11/17 03:37:30;;;;;;;1.65;1.30;;;;;;;9.13;100.00;98356.09;5011270;28;20048;-58
2022/11/17 03:40:06;;;;;;;2.80;1.38;;;;;;;9.15;100.00;98351.41;5017906;28;20037;-61
2022/11/17 03:42:35;;;;;;;4.25;1.45;;;;;;;9.11;100.00;98358.13;5010462;28;20179;-61
2022/11/17 03:45:14;;;;;;;1.40;1.10;;;;;;;9.12;100.00;98352.63;5013032;28;20144;-58
2022/11/17 03:47:42;;;;;;;2.60;1.40;;;;;;;9.14;100.00;98352.44;5012246;28;20034;-60
2022/11/17 03:50:24;;;;;;;2.80;1.33;;;;;;;9.17;100.00;98341.41;5013114;28;20095;-59
2022/11/17 03:52:50;;;;;;;3.53;1.10;;;;;;;9.19;100.00;98341.22;5009896;28;20033;-59
2022/11/17 03:55:16;;;;;;;3.88;1.10;;;;;;;9.23;100.00;98337.91;5017060;28;20045;-62
2022/11/17 03:58:03;;;;;;;3.42;1.23;;;;;;;9.30;100.00;98327.28;5017249;28;20973;-60
2022/11/17 04:00:28;;;;;;;3.40;1.13;;;;;;;9.29;100.00;98329.13;5017829;28;20052;-61
2022/11/17 04:02:57;;;;;;;1.33;1.10;;;;;;;9.34;100.00;98332.97;5020886;28;20091;-59
2022/11/17 04:05:23;;;;;;;3.60;1.15;;;;;;;9.35;100.00;98342.50;5021007;28;20035;-60
2022/11/17 04:07:48;;;;;;;1.90;1.00;;;;;;;9.37;100.00;98341.28;5024519;28;20484;-59
2022/11/17 04:10:15;;;;;;;2.67;1.20;;;;;;;9.38;100.00;98315.66;5021948;28;20033;-59
2022/11/17 04:18:09;;;;;;;3.42;1.10;;;;;;;9.42;100.00;98335.31;5016956;28;20048;-61
2022/11/17 04:20:35;;;;;;;2.10;1.20;;;;;;;9.45;100.00;98342.03;5012368;28;20034;-61
2022/11/17 04:23:08;;;;;;;1.58;1.20;;;;;;;9.42;100.00;98348.56;5019729;28;20436;-60
2022/11/17 04:28:37;;;;;;;3.60;1.50;;;;;;;9.42;100.00;98322.94;5024842;28;20111;-60
2022/11/17 04:31:17;;;;;;;1.88;1.60;;;;;;;9.42;100.00;98309.69;5019615;28;20069;-61
2022/11/17 04:33:53;;;;;;;3.08;1.80;;;;;;;9.40;100.00;98334.75;5013402;28;20466;-60
2022/11/17 04:36:22;;;;;;;2.80;1.77;;;;;;;9.39;100.00;98339.22;5021745;28;20041;-61
2022/11/17 04:38:51;;;;;;;2.95;1.80;;;;;;;9.35;100.00;98326.63;5019773;28;20520;-59
2022/11/17 04:44:03;;;;;;;2.78;1.80;;;;;;;9.29;100.00;98292.09;5021347;28;20045;-59
2022/11/17 04:46:30;;;;;;;3.45;1.90;;;;;;;9.26;100.00;98276.66;5026015;28;20044;-59
2022/11/17 04:48:56;;;;;;;3.90;2.20;;;;;;;9.25;100.00;98280.34;5015527;28;20034;-59
2022/11/17 04:51:23;;;;;;;2.75;1.83;;;;;;;9.25;100.00;98280.34;5009374;28;20029;-59
2022/11/17 04:53:48;;;;;;;3.72;1.90;;;;;;;9.24;100.00;98283.19;5020952;28;20033;-59
2022/11/17 04:56:15;;;;;;;3.83;1.98;;;;;;;9.22;100.00;98283.41;5011798;28;20041;-59
2022/11/17 04:58:41;;;;;;;3.85;1.85;;;;;;;9.23;100.00;98279.72;5018706;28;20063;-59
2022/11/17 05:01:13;;;;;;;3.33;2.00;;;;;;;9.21;100.00;98279.16;5014128;28;20033;-59
2022/11/17 05:03:40;;;;;;;5.17;2.07;;;;;;;9.21;100.00;98278.31;5016130;28;20164;-60
2022/11/17 05:06:05;;;;;;;5.35;2.17;;;;;;;9.20;100.00;98277.53;5020777;28;20098;-61
2022/11/17 05:08:30;;;;;;;6.25;2.10;;;;;;;9.19;100.00;98281.22;5019791;28;20041;-59
2022/11/17 05:13:43;;;;;;;4.70;1.90;;;;;;;9.21;100.00;98292.38;5028391;28;20135;-60
2022/11/17 05:18:52;;;;;;;8.23;2.08;;;;;;;9.24;100.00;98291.13;5021348;28;20119;-60
2022/11/17 05:21:17;;;;;;;8.52;2.05;;;;;;;9.25;100.00;98312.09;5023326;28;20041;-61
2022/11/17 05:23:55;;;;;;;8.82;2.55;;;;;;;9.27;100.00;98333.81;5022156;28;20033;-59
2022/11/17 05:26:25;;;;;;;6.43;1.90;;;;;;;9.24;100.00;98310.44;5014283;28;20029;-58
2022/11/17 05:28:53;;;;;;;8.43;2.50;;;;;;;9.28;100.00;98311.63;5025591;28;20033;-62
2022/11/17 05:31:18;;;;;;;7.82;2.10;;;;;;;9.29;100.00;98326.47;5021677;28;20034;-59
2022/11/17 05:33:43;;;;;;;6.80;2.00;;;;;;;9.32;100.00;98316.50;5023537;28;20103;-59
2022/11/17 05:36:09;;;;;;;7.28;2.30;;;;;;;9.32;100.00;98321.78;5021950;28;20429;-58
2022/11/17 05:38:34;;;;;;;7.95;2.20;;;;;;;9.31;100.00;98336.84;5010200;28;20061;-61
2022/11/17 05:41:00;;;;;;;9.50;2.30;;;;;;;9.29;100.00;98326.47;5006054;28;20107;-60
2022/11/17 05:43:25;;;;;;;9.95;2.33;;;;;;;9.33;100.00;98326.06;5006598;28;20040;-60
2022/11/17 05:45:50;;;;;;;7.85;2.22;;;;;;;9.31;100.00;98336.84;5005689;28;20273;-59
2022/11/17 05:48:16;;;;;;;7.35;2.30;;;;;;;9.33;100.00;98334.00;5010368;28;20497;-61
2022/11/17 05:50:41;;;;;;;9.32;2.58;;;;;;;9.32;100.00;98338.47;5006948;28;20028;-59
2022/11/17 05:53:07;;;;;;;6.93;2.17;;;;;;;9.32;100.00;98337.66;5005389;28;20199;-59
2022/11/17 05:55:32;;;;;;;9.48;2.38;;;;;;;9.31;100.00;98341.34;5009243;28;20037;-59
2022/11/17 05:58:09;;;;;;;10.45;2.33;;;;;;;9.31;100.00;98338.69;5001796;28;20215;-61
2022/11/17 06:00:37;;;;;;;7.68;2.30;;;;;;;9.31;100.00;98346.63;5011047;28;20085;-61
2022/11/17 06:03:09;;;;;;;12.57;2.60;;;;;;;9.33;100.00;98341.94;5003927;28;20042;-60
2022/11/17 06:05:34;;;;;;;12.45;2.53;;;;;;;9.31;100.00;98347.41;5013729;28;20082;-59
2022/11/17 06:08:00;;;;;;;10.43;2.58;;;;;;;9.31;100.00;98349.28;5003869;28;20432;-60
2022/11/17 06:10:26;;;;;;;6.30;2.22;;;;;;;9.31;100.00;98349.28;5005157;28;20034;-61
2022/11/17 06:12:51;;;;;;;11.13;2.58;;;;;;;9.31;100.00;98357.22;5004571;28;20145;-59
2022/11/17 06:15:17;;;;;;;10.68;2.55;;;;;;;9.34;100.00;98362.06;5006971;28;20461;-60
2022/11/17 06:17:48;;;;;;;8.75;2.50;;;;;;;9.32;100.00;98353.53;5004317;28;20037;-60
2022/11/17 06:20:21;;;;;;;11.88;2.53;;;;;;;9.32;100.00;98369.41;5009274;28;20041;-61
2022/11/17 06:22:47;;;;;;;8.07;2.42;;;;;;;9.32;100.00;98369.41;5007287;28;20037;-61
2022/11/17 06:25:13;;;;;;;10.13;2.30;;;;;;;9.32;100.00;98369.41;5008515;28;20494;-59
2022/11/17 06:27:40;;;;;;;8.02;2.13;;;;;;;9.35;100.00;98374.25;5005781;28;20192;-61
2022/11/17 06:30:05;;;;;;;11.43;2.40;;;;;;;9.32;100.00;98370.19;5006662;28;20038;-61
2022/11/17 06:32:35;;;;;;;8.80;2.38;;;;;;;9.33;100.00;98371.03;5006053;28;20382;-61
2022/11/17 06:35:04;;;;;;;10.88;2.35;;;;;;;9.31;100.00;98386.31;5006035;28;20038;-59
2022/11/17 06:37:29;;;;;;;7.10;1.98;;;;;;;9.28;100.00;98380.41;5006614;28;20108;-59
2022/11/17 06:39:55;;;;;;;8.88;2.15;;;;;;;9.31;100.00;98388.94;4999574;28;20497;-59
2022/11/17 06:43:02;;;;;;;9.93;2.00;;;;;;;9.27;100.00;98380.59;5008829;28;20501;-59
2022/11/17 06:45:06;;;;;;;8.43;1.92;;;;;;;9.22;100.00;98386.53;5005747;28;20404;-59
2022/11/17 06:47:31;;;;;;;7.03;1.90;;;;;;;9.19;100.00;98386.97;5008709;28;20029;-59
2022/11/17 06:49:56;;;;;;;3.80;1.60;;;;;;;9.17;100.00;98389.00;5002944;28;20021;-59
2022/11/17 06:52:22;;;;;;;6.60;1.70;;;;;;;9.16;100.00;98400.63;5004554;28;20135;-61
2022/11/17 06:54:47;;;;;;;4.70;1.70;;;;;;;9.15;100.00;98404.28;5008740;28;20037;-58
2022/11/17 06:57:12;;;;;;;5.57;1.90;;;;;;;9.12;100.00;98407.34;5003661;28;20461;-59
2022/11/17 06:59:38;;;;;;;7.68;2.10;;;;;;;9.11;100.00;98405.72;5004844;28;20041;-60
2022/11/17 07:02:03;;;;;;;7.15;1.83;;;;;;;9.07;100.00;98407.19;5016063;28;20056;-60
2022/11/17 07:04:28;;;;;;;5.50;1.83;;;;;;;9.06;100.00;98403.72;5018988;28;20033;-60
2022/11/17 07:06:54;;;;;;;9.35;1.98;;;;;;;9.07;100.00;98407.19;5014650;28;20037;-60
2022/11/17 07:09:19;;;;;;;6.78;1.90;;;;;;;9.06;100.00;98413.47;5009717;28;20144;-61
2022/11/17 07:11:44;;;;;;;5.45;1.85;;;;;;;9.04;100.00;98413.69;5016799;28;20040;-59
2022/11/17 07:14:09;;;;;;;6.55;1.90;;;;;;;9.01;100.00;98416.75;5008448;28;20040;-60
2022/11/17 07:16:35;;;;;;;5.18;1.80;;;;;;;8.98;100.00;98425.91;5008403;28;20762;-59
2022/11/17 07:19:02;;;;;;;6.93;1.80;;;;;;;8.99;100.00;98414.31;5007601;28;20038;-62
2022/11/17 07:21:27;;;;;;;7.43;1.95;;;;;;;8.99;100.00;98430.19;5012726;28;20044;-62
2022/11/17 07:23:53;;;;;;;7.60;1.83;;;;;;;8.96;100.00;98427.16;5010014;28;20034;-62
2022/11/17 07:26:18;;;;;;;5.63;1.83;;;;;;;8.99;100.00;98434.66;5012852;28;20099;-62
2022/11/17 07:28:43;;;;;;;4.95;1.58;;;;;;;8.94;100.00;98437.91;5011108;28;20038;-62
2022/11/17 07:31:09;;;;;;;4.35;2.10;;;;;;;8.92;100.00;98439.97;5004644;28;20034;-62
2022/11/17 07:33:35;;;;;;;5.65;1.85;;;;;;;8.90;100.00;98439.38;5020693;28;20041;-62
2022/11/17 07:36:02;;;;;;;5.63;1.90;;;;;;;8.86;100.00;98431.06;5010160;28;20116;-62
2022/11/17 07:38:30;;;;;;;4.82;1.90;;;;;;;8.88;100.00;98444.03;5008065;28;20041;-62
2022/11/17 07:40:59;;;;;;;6.55;1.75;;;;;;;8.90;100.00;98439.38;5011618;28;20050;-62
2022/11/17 07:43:25;;;;;;;7.18;1.98;;;;;;;8.88;100.00;98444.03;5027737;28;20033;-61
2022/11/17 07:45:50;;;;;;;4.50;1.85;;;;;;;8.88;100.00;98450.16;5012524;28;20095;-63
2022/11/17 07:48:15;;;;;;;3.08;1.52;;;;;;;8.87;100.00;98458.28;5010953;28;20340;-62
2022/11/17 07:50:41;;;;;;;4.13;1.70;;;;;;;8.84;100.00;98448.16;5015754;28;20037;-62
2022/11/17 07:53:06;;;;;;;6.40;1.85;;;;;;;8.87;100.00;98453.00;5009391;28;20037;-62
2022/11/17 07:55:31;;;;;;;5.78;1.77;;;;;;;8.86;100.00;98461.97;5011910;28;20064;-62
2022/11/17 07:57:58;;;;;;;6.20;1.73;;;;;;;8.80;100.00;98457.50;5020855;28;20030;-62
2022/11/17 08:00:25;;;;;;;5.55;1.90;;;;;;;8.87;100.00;98469.69;5011871;28;20034;-62
2022/11/17 08:02:51;;;;;;;5.28;1.60;;;;;;;8.88;100.00;98470.47;5019978;28;20037;-62
2022/11/17 08:05:17;;;;;;;6.55;1.55;;;;;;;8.86;100.00;98473.34;5016919;28;20045;-61
2022/11/17 08:07:44;;;;;;;4.63;1.58;;;;;;;8.87;100.00;98480.25;5020777;28;20079;-61
2022/11/17 08:10:10;;;;;;;5.07;1.80;;;;;;;8.86;100.00;98483.09;5015232;28;20041;-62
2022/11/17 08:12:35;;;;;;;3.17;1.38;;;;;;;8.87;100.00;98485.53;5005365;28;20034;-62
2022/11/17 08:15:00;;;;;;;5.97;1.70;;;;;;;8.86;100.00;98485.75;5011178;28;20685;-61
2022/11/17 08:17:26;;;;;;;10.07;1.70;;;;;;;8.84;100.00;98482.50;5012097;28;20033;-62
2022/11/17 08:19:51;;;;;;;5.13;1.80;;;;;;;8.85;100.00;98481.47;5016912;28;20731;-63
2022/11/17 08:22:16;;;;;;;4.47;1.63;;;;;;;8.88;100.00;98504.84;5012270;28;20029;-63
2022/11/17 08:24:42;;;;;;;8.73;2.00;;;;;;;8.84;100.00;98501.00;5018072;28;20037;-63
2022/11/17 08:27:07;;;;;;;4.57;1.90;;;;;;;8.84;100.00;98506.28;5019185;28;20107;-65
2022/11/17 08:29:32;;;;;;;6.15;1.80;;;;;;;8.82;100.00;98500.38;5013493;28;20046;-64
2022/11/17 08:31:57;;;;;;;4.47;1.80;;;;;;;8.80;100.00;98494.50;5008250;28;20033;-65
2022/11/17 08:34:23;;;;;;;6.68;1.65;;;;;;;8.79;100.00;98511.38;5019249;28;20045;-62
2022/11/17 08:36:48;;;;;;;5.90;1.85;;;;;;;8.78;100.00;98507.13;5014985;28;20087;-65
2022/11/17 08:39:14;;;;;;;7.30;1.73;;;;;;;8.74;100.00;98512.81;5027402;28;20519;-63
2022/11/17 08:41:39;;;;;;;4.47;1.70;;;;;;;8.73;100.00;98508.53;5028550;28;20029;-64
2022/11/17 08:44:04;;;;;;;6.03;1.65;;;;;;;8.71;100.00;98521.16;5025482;28;20124;-65
2022/11/17 08:46:30;;;;;;;14.23;2.92;;;;;;;8.70;100.00;98511.63;5022880;28;20105;-63
2022/11/17 08:48:55;;;;;;;5.65;1.88;;;;;;;8.70;100.00;98519.53;5024070;28;20157;-60
2022/11/17 08:51:20;;;;;;;6.72;2.42;;;;;;;8.69;100.00;98520.53;5026251;28;20041;-60
2022/11/17 08:53:46;;;;;;;7.22;1.80;;;;;;;8.69;100.00;98520.53;5033091;28;20481;-60
2022/11/17 08:56:11;;;;;;;6.88;1.80;;;;;;;8.70;100.00;98522.19;5022563;28;20037;-60
2022/11/17 08:58:42;;;;;;;5.53;2.05;;;;;;;8.69;100.00;98525.81;5017840;28;20033;-61
2022/11/17 09:01:11;;;;;;;4.82;1.70;;;;;;;8.71;100.00;98529.09;5020120;28;20397;-61
2022/11/17 09:03:37;;;;;;;6.13;1.80;;;;;;;8.69;100.00;98525.81;5023112;28;20445;-62
2022/11/17 09:06:04;;;;;;;4.20;1.67;;;;;;;8.71;100.00;98534.38;5027961;28;20065;-60
2022/11/17 09:08:29;;;;;;;3.53;1.60;;;;;;;8.72;100.00;98529.88;5015889;28;20033;-61
2022/11/17 09:10:54;;;;;;;4.93;1.80;;;;;;;8.72;100.00;98538.63;5015171;28;20389;-59
2022/11/17 09:13:20;;;;;;;5.20;1.60;;;;;;;8.74;100.00;98549.00;5013447;28;20033;-60
2022/11/17 09:15:45;;;;;;;8.05;1.80;;;;;;;8.74;100.00;98549.00;5018010;28;20025;-60
2022/11/17 09:18:10;;;;;;;5.88;1.60;;;;;;;8.75;100.00;98540.84;5014750;28;20033;-59
2022/11/17 09:20:36;;;;;;;7.88;1.80;;;;;;;8.76;100.00;98546.97;5019192;28;20067;-61
2022/11/17 09:23:01;;;;;;;5.13;1.77;;;;;;;8.79;100.00;98535.97;5017852;28;20029;-59
2022/11/17 09:25:27;;;;;;;5.55;1.70;;;;;;;8.78;100.00;98554.69;5016322;28;20025;-60
2022/11/17 09:27:53;;;;;;;4.43;1.63;;;;;;;8.73;100.00;98548.19;5022341;28;20473;-62
2022/11/17 09:30:21;;;;;;;4.28;1.80;;;;;;;8.81;100.00;98564.84;5017837;28;20052;-59
2022/11/17 09:32:47;;;;;;;3.88;1.67;;;;;;;8.80;100.00;98563.22;5017752;28;20378;-59
2022/11/17 09:35:13;;;;;;;5.30;1.80;;;;;;;8.81;100.00;98559.53;5014800;28;20498;-61
2022/11/17 09:37:38;;;;;;;9.80;1.90;;;;;;;8.81;100.00;98570.94;5013351;28;20192;-60
2022/11/17 09:40:04;;;;;;;6.20;1.70;;;;;;;8.85;100.00;98564.22;5024155;28;20033;-59
2022/11/17 09:42:30;;;;;;;6.50;1.90;;;;;;;8.89;100.00;98583.13;5023223;28;20033;-59
2022/11/17 09:45:08;;;;;;;6.50;2.08;;;;;;;8.90;100.00;98566.25;5011290;28;20030;-60
2022/11/17 09:47:39;;;;;;;5.68;1.70;;;;;;;8.97;100.00;98584.72;5012524;28;20044;-59
2022/11/17 09:50:16;;;;;;;3.60;1.90;;;;;;;8.98;100.00;98581.09;5012863;28;20033;-59
2022/11/17 09:53:10;;;;;;;7.10;1.92;;;;;;;9.06;100.00;98587.97;5014974;28;20041;-59
2022/11/17 09:55:43;;;;;;;3.67;1.50;;;;;;;9.05;100.00;98594.28;5011798;28;20485;-64
2022/11/17 09:58:30;;;;;;;4.72;1.90;;;;;;;9.11;100.00;98596.09;5022382;28;20037;-62
2022/11/17 10:00:56;;;;;;;4.35;1.50;;;;;;;9.08;100.00;98601.81;5021756;28;20104;-62
2022/11/17 10:03:29;;;;;;;5.35;1.73;;;;;;;9.10;100.00;98602.41;5015177;28;20109;-63
2022/11/17 10:05:55;;;;;;;4.20;1.67;;;;;;;9.12;100.00;98608.28;5022046;28;20028;-63
2022/11/17 10:08:57;;;;;;;5.10;1.63;;;;;;;9.27;100.00;98606.22;5029142;28;20052;-62
2022/11/17 10:11:31;;;;;;;10.45;1.98;;;;;;;9.17;100.00;98600.53;5022101;28;20041;-63
2022/11/17 10:14:17;;;;;;;6.32;1.83;;;;;;;9.22;100.00;98608.66;5011961;28;20037;-61
2022/11/17 10:16:49;;;;;;;6.32;1.70;;;;;;;9.26;100.00;98617.81;5007306;28;20149;-64
2022/11/17 10:19:20;;;;;;;3.97;1.73;;;;;;;9.35;100.00;98620.22;5009490;28;20033;-64
2022/11/17 10:21:52;;;;;;;5.63;1.60;;;;;;;9.38;100.00;98631.19;5006779;28;21990;-60
2022/11/17 10:24:36;;;;;;;5.33;1.70;;;;;;;9.45;100.00;98627.72;5008348;28;20489;-59
2022/11/17 10:27:22;;;;;;;5.70;1.60;;;;;;;9.45;100.00;98620.63;5018932;28;20029;-60
2022/11/17 10:30:06;;;;;;;4.25;1.60;;;;;;;9.47;100.00;98620.41;5021164;28;20033;-62
2022/11/17 10:32:45;;;;;;;7.18;1.70;;;;;;;9.55;100.00;98634.22;5019079;28;20048;-59
2022/11/17 10:35:25;;;;;;;3.75;1.40;;;;;;;9.63;100.00;98630.50;5014951;28;20452;-60
2022/11/17 10:38:11;;;;;;;6.05;1.63;;;;;;;9.66;100.00;98639.84;5012793;28;20128;-60
2022/11/17 10:40:37;;;;;;;5.80;1.52;;;;;;;9.72;100.00;98649.59;5017960;28;20552;-61
2022/11/17 10:43:12;;;;;;;5.05;1.80;;;;;;;9.78;99.83;98659.34;5016377;28;20052;-60
2022/11/17 10:45:43;;;;;;;5.45;1.70;;;;;;;9.80;98.83;98646.75;5019891;28;20036;-60
2022/11/17 10:48:19;;;;;;;5.68;1.95;;;;;;;9.78;100.00;98648.75;5017981;28;20179;-60
2022/11/17 10:50:51;;;;;;;5.97;1.60;;;;;;;9.78;100.00;98659.34;5009221;28;20037;-60
2022/11/17 10:53:39;;;;;;;2.80;1.38;;;;;;;9.78;99.70;98663.84;5010576;28;20053;-59
2022/11/17 10:56:10;;;;;;;3.65;1.63;;;;;;;9.78;97.53;98658.56;5012986;28;20060;-60
2022/11/17 10:58:59;;;;;;;5.45;1.58;;;;;;;9.77;97.95;98652.44;5004953;28;20084;-60
2022/11/17 11:01:37;;;;;;;4.82;1.75;;;;;;;9.77;99.36;98655.09;5001216;28;20033;-61
2022/11/17 11:04:05;;;;;;;5.65;1.70;;;;;;;9.75;98.60;98658.97;5004491;28;20034;-59
2022/11/17 11:06:32;;;;;;;5.57;1.83;;;;;;;9.74;99.10;98668.75;5006178;28;20425;-60
2022/11/17 11:09:10;;;;;;;5.65;1.70;;;;;;;9.73;99.87;98667.13;5006423;28;20480;-59
2022/11/17 11:11:47;;;;;;;3.45;1.60;;;;;;;9.74;100.00;98674.03;5003848;28;20087;-59
2022/11/17 11:14:19;;;;;;;7.90;2.00;;;;;;;9.71;100.00;98653.28;5004654;28;20026;-62
2022/11/17 11:16:49;;;;;;;4.22;1.80;;;;;;;9.67;99.78;98670.63;5006188;28;20033;-59
2022/11/17 11:19:17;;;;;;;6.50;1.60;;;;;;;9.67;100.00;98673.25;5012400;28;20493;-59
2022/11/17 11:22:04;;;;;;;5.05;1.63;;;;;;;9.72;100.00;98670.78;5006473;28;20036;-59
2022/11/17 11:24:41;;;;;;;7.03;2.00;;;;;;;9.68;100.00;98670.38;5006435;28;20456;-58
2022/11/17 11:27:31;;;;;;;5.68;1.88;;;;;;;9.71;100.00;98674.44;5002827;28;20554;-59
2022/11/17 11:30:13;;;;;;;7.97;1.70;;;;;;;9.75;98.70;98678.31;5003339;28;20038;-59
2022/11/17 11:33:12;;;;;;;5.90;1.83;;;;;;;9.76;98.21;98687.88;5003764;28;20042;-59
2022/11/17 11:36:15;;;;;;;3.83;1.73;;;;;;;9.76;98.32;98698.47;5002161;28;20539;-59
2022/11/17 11:38:58;;;;;;;2.80;1.60;;;;;;;9.74;99.44;98689.94;4985873;28;20056;-60
2022/11/17 11:41:41;;;;;;;5.57;1.80;;;;;;;9.78;99.11;98696.41;5014566;28;20034;-61
2022/11/17 11:44:19;;;;;;;4.93;1.60;;;;;;;9.81;99.47;98695.19;5012290;28;20132;-60
2022/11/17 11:46:48;;;;;;;6.28;1.90;;;;;;;9.74;97.47;98700.50;5004138;28;20033;-58
2022/11/17 11:49:22;;;;;;;5.60;1.70;;;;;;;9.74;98.44;98700.50;5009057;28;21370;-61
2022/11/17 11:51:50;;;;;;;6.05;2.00;;;;;;;9.69;98.43;98692.38;5006450;28;20033;-59
2022/11/17 11:54:30;;;;;;;6.07;2.10;;;;;;;9.76;98.92;98706.41;5008007;28;20034;-60
2022/11/17 11:56:56;;;;;;;5.82;1.60;;;;;;;9.78;98.60;98703.56;5003600;28;20029;-61
2022/11/17 11:59:37;;;;;;;3.83;1.80;;;;;;;9.82;96.61;98708.22;5010075;28;20550;-58
2022/11/17 12:02:11;;;;;;;2.35;1.50;;;;;;;9.84;97.76;98715.97;5013899;28;20460;-60
2022/11/17 12:04:41;;;;;;;3.58;1.50;;;;;;;9.90;94.84;98693.13;5019659;28;20108;-59
2022/11/17 12:07:22;;;;;;;3.17;1.70;;;;;;;9.85;93.30;98703.50;5017643;28;20033;-59
2022/11/17 12:09:47;;;;;;;3.40;1.50;;;;;;;9.94;93.44;98707.56;4999838;28;20029;-59
2022/11/17 12:12:29;;;;;;;3.75;1.40;;;;;;;9.89;94.23;98712.66;5018341;28;20026;-60
2022/11/17 12:15:17;;;;;;;4.93;1.53;;;;;;;9.93;95.96;98713.88;5017852;28;20041;-61
2022/11/17 12:17:55;;;;;;;6.38;1.67;;;;;;;9.92;96.24;98712.25;5007814;28;20053;-58